createdAt,value
2018-07-02T11:18:41.992Z,25.65
2018-07-02T11:19:41.932Z,24.85
2018-07-02T11:20:41.918Z,25.63
2018-07-02T11:21:41.962Z,24.54
2018-07-02T11:22:41.893Z,25.93
2018-07-02T11:23:41.888Z,24.93
2018-07-02T11:24:41.972Z,24.83
2018-07-02T11:25:41.862Z,24.93
2018-07-02T11:26:41.909Z,25.03
2018-07-02T11:27:41.841Z,25.12
2018-07-02T11:28:41.919Z,25.12
2018-07-02T11:29:41.815Z,24.92
2018-07-02T11:30:41.813Z,24.73
2018-07-02T11:31:42.034Z,25.13
2018-07-02T11:32:41.788Z,24.73
2018-07-02T11:33:41.774Z,23.75
2018-07-02T11:34:41.762Z,24.45
2018-07-02T11:35:41.751Z,24.45
2018-07-02T11:36:41.797Z,24.74
2018-07-02T11:37:41.743Z,25.14
2018-07-02T11:38:41.751Z,23.74
2018-07-02T11:39:41.713Z,23.54
2018-07-02T11:40:41.705Z,23.04
2018-07-02T11:41:41.826Z,23.73
2018-07-02T11:42:41.756Z,23.54
2018-07-02T11:43:41.678Z,23.24
2018-07-02T11:44:41.663Z,23.03
2018-07-02T11:45:41.653Z,23.22
2018-07-02T11:46:41.636Z,23.73
2018-07-02T11:47:41.683Z,22.93
2018-07-02T11:48:41.639Z,23.33
2018-07-02T11:49:41.635Z,23.32
2018-07-02T11:50:41.597Z,22.04
2018-07-02T11:51:41.632Z,23.93
2018-07-02T11:52:41.639Z,23.04
2018-07-02T11:53:41.574Z,25.32
2018-07-02T11:54:41.577Z,23.72
2018-07-02T11:55:41.545Z,23.52
2018-07-02T11:56:41.554Z,24.81
2018-07-02T11:57:41.595Z,24.41
2018-07-02T11:58:41.517Z,23.62
2018-07-02T11:59:41.504Z,25.01
2018-07-02T12:00:41.495Z,23.51
2018-07-02T12:01:41.480Z,23.11
2018-07-02T12:02:41.531Z,23.90
2018-07-02T12:03:41.461Z,23.21
2018-07-02T12:04:41.454Z,23.11
2018-07-02T12:05:41.446Z,23.32
2018-07-02T12:06:41.430Z,22.24
2018-07-02T12:07:41.474Z,23.22
2018-07-02T12:08:41.408Z,23.82
2018-07-02T12:09:41.396Z,23.71
2018-07-02T12:10:41.389Z,23.11
2018-07-02T12:11:41.379Z,22.83
2018-07-02T12:12:41.423Z,22.73
2018-07-02T12:13:41.354Z,23.33
2018-07-02T12:14:41.346Z,23.63
2018-07-02T12:15:41.334Z,23.24
2018-07-02T12:16:41.332Z,24.11
2018-07-02T12:17:41.378Z,22.92
2018-07-02T12:18:41.392Z,23.00
2018-07-02T12:19:41.304Z,22.30
2018-07-02T12:20:41.387Z,22.31
2018-07-02T12:21:41.283Z,22.22
2018-07-02T12:22:41.329Z,23.70
2018-07-02T12:23:41.257Z,22.89
2018-07-02T12:24:41.247Z,24.37
2018-07-02T12:25:41.232Z,23.19
2018-07-02T12:26:41.220Z,22.89
2018-07-02T12:27:41.277Z,23.77
2018-07-02T12:28:41.198Z,23.36
2018-07-02T12:29:41.193Z,22.06
2018-07-02T12:30:41.181Z,20.78
2018-07-02T12:31:41.169Z,20.09
2018-07-02T12:32:41.205Z,20.68
2018-07-02T12:33:41.150Z,21.30
2018-07-02T12:34:41.138Z,20.90
2018-07-02T12:35:41.124Z,21.60
2018-07-02T12:36:41.115Z,21.60
2018-07-02T12:37:41.171Z,20.72
2018-07-02T12:38:41.093Z,21.01
2018-07-02T12:39:41.078Z,21.50
2018-07-02T12:40:41.072Z,22.78
2018-07-02T12:41:41.066Z,21.59
2018-07-02T12:42:41.109Z,21.10
2018-07-02T12:43:41.037Z,21.39
2018-07-02T12:44:41.029Z,21.39
2018-07-02T12:45:41.021Z,20.41
2018-07-02T12:46:41.023Z,21.29
2018-07-02T12:47:41.058Z,21.19
2018-07-02T12:48:40.991Z,20.91
2018-07-02T12:49:40.976Z,21.42
2018-07-02T12:50:40.965Z,20.92
2018-07-02T12:51:40.952Z,22.69
2018-07-02T12:52:41.004Z,21.39
2018-07-02T12:53:40.938Z,20.70
2018-07-02T12:54:40.925Z,21.00
2018-07-02T12:55:40.949Z,21.59
2018-07-02T12:56:40.922Z,20.70
2018-07-02T12:57:40.958Z,20.91
2018-07-02T12:58:40.881Z,21.39
2018-07-02T12:59:40.869Z,20.80
2018-07-02T13:00:40.857Z,21.10
2018-07-02T13:01:41.023Z,21.20
2018-07-02T13:02:40.904Z,20.80
2018-07-02T13:03:40.828Z,21.10
2018-07-02T13:04:40.819Z,20.80
2018-07-02T13:05:40.806Z,21.21
2018-07-02T13:06:40.794Z,21.70
2018-07-02T13:07:40.847Z,22.01
2018-07-02T13:08:40.772Z,23.08
2018-07-02T13:09:40.763Z,22.80
2018-07-02T13:10:40.759Z,23.59
2018-07-02T13:11:40.754Z,21.91
2018-07-02T13:12:40.792Z,22.01
2018-07-02T13:13:40.730Z,23.28
2018-07-02T13:14:40.715Z,21.90
2018-07-02T13:15:40.702Z,22.38
2018-07-02T13:16:40.695Z,21.59
2018-07-02T13:17:40.734Z,20.90
2018-07-02T13:18:40.671Z,20.90
2018-07-02T13:19:40.663Z,21.19
2018-07-02T13:20:40.679Z,20.59
2018-07-02T13:21:40.640Z,20.00
2018-07-02T13:22:40.702Z,19.90
2018-07-02T13:23:40.619Z,20.01
2018-07-02T13:24:40.608Z,20.29
2018-07-02T13:25:40.597Z,19.51
2018-07-02T13:26:40.733Z,20.10
2018-07-02T13:27:40.579Z,19.72
2018-07-02T13:28:40.624Z,20.11
2018-07-02T13:29:40.565Z,20.22
2018-07-02T13:30:40.546Z,21.21
2018-07-02T13:31:40.536Z,20.42
2018-07-02T13:32:40.528Z,19.63
2018-07-02T13:33:40.565Z,20.60
2018-07-02T13:34:40.505Z,20.01
2018-07-02T13:35:40.496Z,20.70
2018-07-02T13:36:40.522Z,20.70
2018-07-02T13:37:40.489Z,20.50
2018-07-02T13:38:40.522Z,20.50
2018-07-02T13:39:40.452Z,21.30
2018-07-02T13:40:40.444Z,21.31
2018-07-02T13:41:40.485Z,21.11
2018-07-02T13:42:40.428Z,21.50
2018-07-02T13:43:40.469Z,22.17
2018-07-02T13:44:40.406Z,21.19
2018-07-02T13:45:40.391Z,20.89
2018-07-02T13:46:40.385Z,21.09
2018-07-02T13:47:40.379Z,21.09
2018-07-02T13:48:40.420Z,20.79
2018-07-02T13:49:40.354Z,21.18
2018-07-02T13:50:40.344Z,21.08
2018-07-02T13:51:40.339Z,22.75
2018-07-02T13:52:40.324Z,22.16
2018-07-02T13:53:40.503Z,20.68
2018-07-02T13:54:40.406Z,21.28
2018-07-02T13:55:40.399Z,20.98
2018-07-02T13:56:40.395Z,20.89
2018-07-02T13:57:40.358Z,20.70
2018-07-02T13:58:40.364Z,20.99
2018-07-02T13:59:40.274Z,20.88
2018-07-02T14:00:40.318Z,20.87
2018-07-02T14:01:40.249Z,21.45
2018-07-02T14:02:40.228Z,21.86
2018-07-02T14:03:40.273Z,21.36
2018-07-02T14:04:40.217Z,21.06
2018-07-02T14:05:40.204Z,20.97
2018-07-02T14:06:40.217Z,20.57
2018-07-02T14:07:40.173Z,20.78
2018-07-02T14:08:40.221Z,22.05
2018-07-02T14:09:40.154Z,20.68
2018-07-02T14:10:40.149Z,20.68
2018-07-02T14:11:40.140Z,20.57
2018-07-02T14:12:40.129Z,20.96
2018-07-02T14:13:40.175Z,20.67
2018-07-02T14:14:40.130Z,20.39
2018-07-02T14:15:40.097Z,21.37
2018-07-02T14:16:40.089Z,21.37
2018-07-02T14:17:40.075Z,23.05
2018-07-02T14:18:40.230Z,22.25
2018-07-02T14:19:40.146Z,20.86
2018-07-02T14:20:40.235Z,20.67
2018-07-02T14:21:40.058Z,20.65
2018-07-02T14:22:40.045Z,22.03
2018-07-02T14:23:40.090Z,20.95
2018-07-02T14:24:40.043Z,20.75
2018-07-02T14:25:40.008Z,22.23
2018-07-02T14:26:40.008Z,21.54
2018-07-02T14:27:39.995Z,20.65
2018-07-02T14:28:40.049Z,21.26
2018-07-02T14:29:39.991Z,21.06
2018-07-02T14:30:39.963Z,23.20
2018-07-02T14:31:39.946Z,21.83
2018-07-02T14:32:39.943Z,21.63
2018-07-02T14:33:40.070Z,22.02
2018-07-02T14:34:39.916Z,19.95
2018-07-02T14:35:39.929Z,20.81
2018-07-02T14:36:39.904Z,20.22
2018-07-02T14:37:39.959Z,20.04
2018-07-02T14:38:39.981Z,21.02
2018-07-02T14:39:39.883Z,20.82
2018-07-02T14:40:39.868Z,19.94
2018-07-02T14:41:39.853Z,20.64
2018-07-02T14:42:39.847Z,20.24
2018-07-02T14:43:39.909Z,19.36
2018-07-02T14:44:39.844Z,19.75
2018-07-02T14:45:39.818Z,20.56
2018-07-02T14:46:39.848Z,20.96
2018-07-02T14:47:40.173Z,19.88
2018-07-02T14:48:39.843Z,19.68
2018-07-02T14:56:24.652Z,19.24
2018-07-02T14:57:24.379Z,19.94
2018-07-02T14:58:24.476Z,19.46
2018-07-02T14:59:24.344Z,19.87
2018-07-02T15:00:25.707Z,21.05
2018-07-02T15:28:11.454Z,20.33
2018-07-02T15:29:11.631Z,19.85
2018-07-02T15:30:11.434Z,20.92
2018-07-02T15:31:11.247Z,19.74
2018-07-02T15:32:11.261Z,20.25
2018-07-02T15:33:11.239Z,20.64
2018-07-02T15:34:11.290Z,20.94
2018-07-02T15:35:11.399Z,20.34
2018-07-02T15:36:11.302Z,19.46
2018-07-02T15:41:36.534Z,19.84
2018-07-02T15:43:50.214Z,19.85
2018-07-02T15:44:50.034Z,20.54
2018-07-02T15:45:49.985Z,21.04
2018-07-02T15:46:50.002Z,21.14
2018-07-02T15:47:49.818Z,19.95
2018-07-02T15:48:50.133Z,21.14
2018-07-02T15:49:50.053Z,20.04
2018-07-02T15:50:49.748Z,20.83
2018-07-02T15:51:49.742Z,21.52
2018-07-02T15:52:49.977Z,21.22
2018-07-02T15:53:49.815Z,20.01
2018-07-02T15:54:50.573Z,19.22
2018-07-02T15:55:49.711Z,19.22
2018-07-02T15:56:49.702Z,19.43
2018-07-02T15:57:49.690Z,20.12
2018-07-02T15:58:49.762Z,19.83
2018-07-02T15:59:49.741Z,20.04
2018-07-02T16:00:49.674Z,20.72
2018-07-02T16:01:49.648Z,19.94
2018-07-02T16:02:49.633Z,20.82
2018-07-02T16:03:49.630Z,19.16
2018-07-02T16:04:49.677Z,20.34
2018-07-02T16:05:49.608Z,19.85
2018-07-02T16:06:49.595Z,19.65
2018-07-02T16:07:49.581Z,20.43
2018-07-02T16:08:49.624Z,19.35
2018-07-02T16:09:49.649Z,20.23
2018-07-02T16:10:49.561Z,19.84
2018-07-02T16:11:49.561Z,20.64
2018-07-02T16:12:49.652Z,20.73
2018-07-02T16:13:49.549Z,19.85
2018-07-02T16:14:49.614Z,20.73
2018-07-02T16:15:49.666Z,19.75
2018-07-02T16:16:49.504Z,20.64
2018-07-02T16:17:49.504Z,20.93
2018-07-02T16:18:49.536Z,19.95
2018-07-02T16:19:49.547Z,20.44
2018-07-02T16:20:49.459Z,20.35
2018-07-02T16:21:49.456Z,20.54
2018-07-02T16:22:49.493Z,20.56
2018-07-02T16:23:50.062Z,20.06
2018-07-02T16:24:49.494Z,21.14
2018-07-02T16:25:49.414Z,19.17
2018-07-02T16:26:49.401Z,19.77
2018-07-02T16:27:49.641Z,19.77
2018-07-02T16:28:49.426Z,19.87
2018-07-02T16:29:49.422Z,20.65
2018-07-02T16:30:49.365Z,19.96
2018-07-02T16:31:49.348Z,19.46
2018-07-02T16:32:49.336Z,19.96
2018-07-02T16:33:49.332Z,20.54
2018-07-02T16:34:49.384Z,20.54
2018-07-02T16:35:49.309Z,19.74
2018-07-02T16:36:49.310Z,18.37
2018-07-02T16:37:51.279Z,18.96
2018-07-02T16:38:49.273Z,18.76
2018-07-02T16:39:49.335Z,18.56
2018-07-02T16:40:49.254Z,19.25
2018-07-02T16:41:49.242Z,18.37
2018-07-02T16:42:49.240Z,19.04
2018-07-02T16:43:49.225Z,19.14
2018-07-02T16:44:49.287Z,19.44
2018-07-02T16:45:49.210Z,18.75
2018-07-02T16:46:49.193Z,19.94
2018-07-02T16:47:49.187Z,19.16
2018-07-02T16:48:49.181Z,19.95
2018-07-02T16:49:49.235Z,20.24
2018-07-02T16:50:49.189Z,20.24
2018-07-02T16:51:49.973Z,19.46
2018-07-02T16:52:49.155Z,19.77
2018-07-02T16:53:49.119Z,20.48
2018-07-02T16:54:49.196Z,21.07
2018-07-02T16:55:49.122Z,19.69
2018-07-02T16:56:49.106Z,20.38
2018-07-02T16:57:49.083Z,20.78
2018-07-02T16:58:49.071Z,20.67
2018-07-02T16:59:49.136Z,20.78
2018-07-02T17:00:49.046Z,20.87
2018-07-02T17:01:49.039Z,21.08
2018-07-02T17:02:49.028Z,20.49
2018-07-02T17:03:49.016Z,20.87
2018-07-02T17:04:49.092Z,20.78
2018-07-02T17:05:48.993Z,20.88
2018-07-02T17:06:48.987Z,20.00
2018-07-02T17:07:48.974Z,20.70
2018-07-02T17:08:48.968Z,20.88
2018-07-02T17:09:48.957Z,20.40
2018-07-02T17:10:49.022Z,21.00
2018-07-02T17:11:48.944Z,20.41
2018-07-02T17:12:48.921Z,20.70
2018-07-02T17:13:48.907Z,21.30
2018-07-02T17:14:48.896Z,20.70
2018-07-02T17:15:48.962Z,20.70
2018-07-02T17:16:48.879Z,20.10
2018-07-02T17:17:48.875Z,19.61
2018-07-02T17:18:48.871Z,20.10
2018-07-02T17:19:48.842Z,20.60
2018-07-02T17:20:48.910Z,20.89
2018-07-02T17:21:48.849Z,20.10
2018-07-02T17:22:48.820Z,20.40
2018-07-02T17:23:48.814Z,21.19
2018-07-02T17:24:48.788Z,20.41
2018-07-02T17:25:48.993Z,21.20
2018-07-02T17:26:48.778Z,21.30
2018-07-02T17:27:48.762Z,21.00
2018-07-02T17:28:48.767Z,21.00
2018-07-02T17:29:48.741Z,21.30
2018-07-02T17:30:49.176Z,21.89
2018-07-02T17:31:48.755Z,20.70
2018-07-02T17:32:48.914Z,21.10
2018-07-02T17:33:48.733Z,20.89
2018-07-02T17:34:48.691Z,21.30
2018-07-02T17:35:48.756Z,21.09
2018-07-02T17:36:48.687Z,20.89
2018-07-02T17:37:48.649Z,20.89
2018-07-02T17:38:48.650Z,22.17
2018-07-02T17:39:48.723Z,20.70
2018-07-02T17:40:48.699Z,20.49
2018-07-02T17:41:48.610Z,20.59
2018-07-02T17:42:48.656Z,20.49
2018-07-02T17:43:48.972Z,20.49
2018-07-02T17:44:48.582Z,20.20
2018-07-02T17:45:48.654Z,19.90
2018-07-02T17:46:48.563Z,20.50
2018-07-02T17:47:48.581Z,20.89
2018-07-02T17:48:48.562Z,21.19
2018-07-02T17:49:48.523Z,20.40
2018-07-02T17:50:48.597Z,20.00
2018-07-02T17:51:48.508Z,20.49
2018-07-02T17:52:48.499Z,21.08
2018-07-02T17:53:48.484Z,20.68
2018-07-02T17:54:48.569Z,20.60
2018-07-02T17:55:48.544Z,21.18
2018-07-02T17:56:48.462Z,20.57
2018-07-02T17:57:48.444Z,20.78
2018-07-02T17:58:48.432Z,20.18
2018-07-02T17:59:48.429Z,20.09
2018-07-02T18:00:48.491Z,20.17
2018-07-02T18:01:48.396Z,19.98
2018-07-02T18:02:48.646Z,19.58
2018-07-02T18:03:48.382Z,19.68
2018-07-02T18:04:48.369Z,19.19
2018-07-02T18:05:48.435Z,21.36
2018-07-02T18:06:48.340Z,19.48
2018-07-02T18:07:48.404Z,20.36
2018-07-02T18:08:48.339Z,19.08
2018-07-02T18:09:48.368Z,19.57
2018-07-02T18:10:48.377Z,19.57
2018-07-02T18:11:48.288Z,19.29
2018-07-02T18:12:48.403Z,20.17
2018-07-02T18:13:48.273Z,19.98
2018-07-02T18:14:48.256Z,20.17
2018-07-02T18:15:48.331Z,19.27
2018-07-02T18:16:48.267Z,19.37
2018-07-02T18:17:48.224Z,19.95
2018-07-02T18:18:48.218Z,19.35
2018-07-02T18:19:48.214Z,18.56
2018-07-02T18:20:48.296Z,18.76
2018-07-02T18:21:48.181Z,17.96
2018-07-02T18:22:48.170Z,19.15
2018-07-02T18:23:48.197Z,19.54
2018-07-02T18:24:48.156Z,19.64
2018-07-02T18:25:48.210Z,19.75
2018-07-02T18:26:48.152Z,19.46
2018-07-02T18:27:48.125Z,19.27
2018-07-02T18:28:48.126Z,19.48
2018-07-02T18:29:48.097Z,20.28
2018-07-02T18:30:48.165Z,20.98
2018-07-02T18:31:48.075Z,20.89
2018-07-02T18:32:48.066Z,21.30
2018-07-02T18:33:48.061Z,21.11
2018-07-02T18:34:48.046Z,21.70
2018-07-02T18:35:48.108Z,22.19
2018-07-02T18:36:48.032Z,21.71
2018-07-02T18:37:48.015Z,22.11
2018-07-02T18:38:48.005Z,22.20
2018-07-02T18:39:47.990Z,21.71
2018-07-02T18:40:48.050Z,21.12
2018-07-02T18:41:47.967Z,21.72
2018-07-02T18:42:47.962Z,21.42
2018-07-02T18:43:47.951Z,21.42
2018-07-02T18:44:47.938Z,21.62
2018-07-02T18:45:47.995Z,21.33
2018-07-02T18:46:47.912Z,23.51
2018-07-02T18:47:47.905Z,23.71
2018-07-02T18:48:47.889Z,26.48
2018-07-02T18:49:47.888Z,26.50
2018-07-02T18:50:47.882Z,27.09
2018-07-02T18:51:47.938Z,27.29
2018-07-02T18:52:47.855Z,27.21
2018-07-02T18:53:47.839Z,27.90
2018-07-02T18:54:47.826Z,28.09
2018-07-02T18:55:47.842Z,28.80
2018-07-02T18:56:47.878Z,29.30
2018-07-02T18:57:47.787Z,28.80
2018-07-02T18:58:47.780Z,29.30
2018-07-02T18:59:47.772Z,29.41
2018-07-02T19:00:47.757Z,29.23
2018-07-02T19:01:47.808Z,29.92
2018-07-02T19:02:47.758Z,29.92
2018-07-02T19:03:47.729Z,30.22
2018-07-02T19:04:47.714Z,30.12
2018-07-02T19:05:47.709Z,29.72
2018-07-02T19:06:47.761Z,29.64
2018-07-02T19:07:47.685Z,29.64
2018-07-02T19:08:47.672Z,30.63
2018-07-02T19:09:47.662Z,30.83
2018-07-02T19:10:47.655Z,30.83
2018-07-02T19:11:47.706Z,31.44
2018-07-02T19:12:47.632Z,30.84
2018-07-02T19:13:47.614Z,31.34
2018-07-02T19:14:47.606Z,31.55
2018-07-02T19:15:47.599Z,31.14
2018-07-02T19:16:47.774Z,31.65
2018-07-02T19:17:47.577Z,31.55
2018-07-02T19:18:47.564Z,31.85
2018-07-02T19:19:47.556Z,31.74
2018-07-02T19:20:47.546Z,31.65
2018-07-02T19:21:47.605Z,31.35
2018-07-02T19:22:47.526Z,31.95
2018-07-02T19:23:47.549Z,31.65
2018-07-02T19:24:47.499Z,32.35
2018-07-02T19:25:47.488Z,32.05
2018-07-02T19:26:47.548Z,32.96
2018-07-02T19:27:47.466Z,31.77
2018-07-02T19:28:47.456Z,32.56
2018-07-02T19:29:47.496Z,31.96
2018-07-02T19:30:47.431Z,33.06
2018-07-02T19:31:47.493Z,32.46
2018-07-02T19:32:47.416Z,31.78
2018-07-02T19:33:47.388Z,32.57
2018-07-02T19:34:47.385Z,31.68
2018-07-02T19:35:47.378Z,32.87
2018-07-02T19:36:47.431Z,32.97
2018-07-02T19:37:47.356Z,32.18
2018-07-02T19:38:47.344Z,32.08
2018-07-02T19:39:47.335Z,32.87
2018-07-02T19:40:47.380Z,32.87
2018-07-02T19:41:47.399Z,32.67
2018-07-02T19:42:47.300Z,33.07
2018-07-02T19:43:47.288Z,32.59
2018-07-02T19:44:47.295Z,32.99
2018-07-02T19:45:47.274Z,33.29
2018-07-02T19:46:47.329Z,32.29
2018-07-02T19:47:47.247Z,32.60
2018-07-02T19:48:47.236Z,33.20
2018-07-02T19:49:47.233Z,33.11
2018-07-02T19:50:47.216Z,32.81
2018-07-02T19:51:47.282Z,33.90
2018-07-02T19:52:47.192Z,33.90
2018-07-02T19:53:47.181Z,33.11
2018-07-02T19:54:47.175Z,33.92
2018-07-02T19:55:47.178Z,33.92
2018-07-02T19:56:47.302Z,33.81
2018-07-02T19:57:47.145Z,33.72
2018-07-02T19:58:47.124Z,34.61
2018-07-02T19:59:47.114Z,34.91
2018-07-02T20:00:47.109Z,34.53
2018-07-02T20:01:47.165Z,34.43
2018-07-02T20:02:47.131Z,34.33
2018-07-02T20:03:47.079Z,34.43
2018-07-02T20:04:47.058Z,34.13
2018-07-02T20:05:47.048Z,34.43
2018-07-02T20:06:48.341Z,34.13
2018-07-02T20:07:47.029Z,35.13
2018-07-02T20:08:47.027Z,35.84
2018-07-02T20:09:47.009Z,35.74
2018-07-02T20:10:46.995Z,35.44
2018-07-02T20:11:47.054Z,35.44
2018-07-02T20:12:46.976Z,36.14
2018-07-02T20:13:46.962Z,36.35
2018-07-02T20:14:46.961Z,36.25
2018-07-02T20:15:46.938Z,36.07
2018-07-02T20:16:46.988Z,36.27
2018-07-02T20:17:46.915Z,36.37
2018-07-02T20:18:46.963Z,36.09
2018-07-02T20:19:46.901Z,36.29
2018-07-02T20:20:46.889Z,36.29
2018-07-02T20:21:46.935Z,36.37
2018-07-02T20:22:46.863Z,36.07
2018-07-02T20:23:46.904Z,36.49
2018-07-02T20:24:46.853Z,35.38
2018-07-02T20:25:46.834Z,36.37
2018-07-02T20:26:46.890Z,35.97
2018-07-02T20:27:46.808Z,36.57
2018-07-02T20:28:46.797Z,36.27
2018-07-02T20:29:46.786Z,36.69
2018-07-02T20:30:46.776Z,37.37
2018-07-02T20:31:46.856Z,36.29
2018-07-02T20:32:46.757Z,37.08
2018-07-02T20:33:46.740Z,36.71
2018-07-02T20:34:46.754Z,37.10
2018-07-02T20:35:46.722Z,37.10
2018-07-02T20:36:46.709Z,36.31
2018-07-02T20:37:46.767Z,37.40
2018-07-02T20:38:46.688Z,37.12
2018-07-02T20:39:46.676Z,36.31
2018-07-02T20:40:46.660Z,37.23
2018-07-02T20:41:46.656Z,36.41
2018-07-02T20:42:46.723Z,36.13
2018-07-02T20:43:46.636Z,36.51
2018-07-02T20:44:46.653Z,36.32
2018-07-02T20:45:46.613Z,36.32
2018-07-02T20:46:46.586Z,37.10
2018-07-02T20:47:46.671Z,36.71
2018-07-02T20:48:46.578Z,35.81
2018-07-02T20:49:46.656Z,36.91
2018-07-02T20:50:46.552Z,36.01
2018-07-02T20:51:46.545Z,37.23
2018-07-02T20:52:46.603Z,36.13
2018-07-02T20:53:46.565Z,36.13
2018-07-02T20:54:46.519Z,35.93
2018-07-02T20:55:46.508Z,36.32
2018-07-02T20:56:46.488Z,37.21
2018-07-02T20:57:46.550Z,37.23
2018-07-02T20:58:46.467Z,36.82
2018-07-02T20:59:46.459Z,37.12
2018-07-02T21:00:46.447Z,37.23
2018-07-02T21:01:46.434Z,37.12
2018-07-02T21:02:46.500Z,37.62
2018-07-02T21:03:46.404Z,37.72
2018-07-02T21:04:46.402Z,37.74
2018-07-02T21:05:46.394Z,37.74
2018-07-02T21:06:46.383Z,37.96
2018-07-02T21:07:46.435Z,37.76
2018-07-02T21:08:46.357Z,38.87
2018-07-02T21:09:46.351Z,39.37
2018-07-02T21:10:46.477Z,39.29
2018-07-02T21:11:46.333Z,38.79
2018-07-02T21:12:46.388Z,39.81
2018-07-02T21:13:46.306Z,40.01
2018-07-02T21:14:46.300Z,41.24
2018-07-02T21:15:46.355Z,40.23
2018-07-02T21:16:46.266Z,39.83
2018-07-02T21:17:46.330Z,40.73
2018-07-02T21:18:46.256Z,41.55
2018-07-02T21:19:46.238Z,41.74
2018-07-02T21:20:46.226Z,41.96
2018-07-02T21:21:46.217Z,42.76
2018-07-02T21:22:46.275Z,42.76
2018-07-02T21:23:46.193Z,42.88
2018-07-02T21:24:46.181Z,42.46
2018-07-02T21:25:46.172Z,43.48
2018-07-02T21:26:46.158Z,43.26
2018-07-02T21:27:46.233Z,42.57
2018-07-02T21:28:46.145Z,43.48
2018-07-02T21:29:46.132Z,43.08
2018-07-02T21:30:46.113Z,43.80
2018-07-02T21:31:46.108Z,43.68
2018-07-02T21:32:46.175Z,43.98
2018-07-02T21:33:46.087Z,43.48
2018-07-02T21:34:46.078Z,42.40
2018-07-02T21:35:46.063Z,42.11
2018-07-02T21:36:46.051Z,43.90
2018-07-02T21:37:46.104Z,42.90
2018-07-02T21:38:46.031Z,42.60
2018-07-02T21:39:46.023Z,43.80
2018-07-02T21:40:46.009Z,43.90
2018-07-02T21:41:46.069Z,42.60
2018-07-02T21:42:46.052Z,43.30
2018-07-02T21:43:45.969Z,43.38
2018-07-02T21:44:45.963Z,43.60
2018-07-02T21:45:45.957Z,43.90
2018-07-02T21:46:45.936Z,44.40
2018-07-02T21:47:45.987Z,44.12
2018-07-02T21:48:45.916Z,44.42
2018-07-02T21:49:45.903Z,43.60
2018-07-02T21:50:45.893Z,43.72
2018-07-02T21:51:45.895Z,44.62
2018-07-02T21:52:45.940Z,45.22
2018-07-02T21:53:45.861Z,43.82
2018-07-02T21:54:45.852Z,44.70
2018-07-02T21:55:45.838Z,44.92
2018-07-02T21:56:45.830Z,43.90
2018-07-02T21:57:45.889Z,43.82
2018-07-02T21:58:45.801Z,43.72
2018-07-02T21:59:45.797Z,44.90
2018-07-02T22:00:45.782Z,43.82
2018-07-02T22:01:45.772Z,43.72
2018-07-02T22:02:49.432Z,43.72
2018-07-02T22:03:45.746Z,44.02
2018-07-02T22:04:45.740Z,43.72
2018-07-02T22:05:45.733Z,43.72
2018-07-02T22:06:45.713Z,44.84
2018-07-02T22:07:45.728Z,43.74
2018-07-02T22:08:45.764Z,43.84
2018-07-02T22:09:45.681Z,44.84
2018-07-02T22:10:45.672Z,45.57
2018-07-02T22:11:45.659Z,44.87
2018-07-02T22:12:45.732Z,44.76
2018-07-02T22:13:45.642Z,43.96
2018-07-02T22:14:45.627Z,43.96
2018-07-02T22:15:45.611Z,44.56
2018-07-02T22:16:45.610Z,44.24
2018-07-02T22:17:45.593Z,44.04
2018-07-02T22:18:45.663Z,43.54
2018-07-02T22:19:45.576Z,43.94
2018-07-02T22:20:45.560Z,42.52
2018-07-02T22:21:45.545Z,43.52
2018-07-02T22:22:45.541Z,43.32
2018-07-02T22:23:45.596Z,43.92
2018-07-02T22:24:45.516Z,44.12
2018-07-02T22:25:45.508Z,44.34
2018-07-02T22:26:45.493Z,44.14
2018-07-02T22:27:45.484Z,45.04
2018-07-02T22:28:45.545Z,44.74
2018-07-02T22:29:45.467Z,44.54
2018-07-02T22:30:45.454Z,45.45
2018-07-02T22:31:45.439Z,44.74
2018-07-02T22:32:45.424Z,45.04
2018-07-02T22:33:45.485Z,46.17
2018-07-02T22:34:45.404Z,45.06
2018-07-02T22:35:45.395Z,45.87
2018-07-02T22:36:45.386Z,46.39
2018-07-02T22:37:45.368Z,46.77
2018-07-02T22:38:45.423Z,47.09
2018-07-02T22:39:45.354Z,47.70
2018-07-02T22:40:45.338Z,47.72
2018-07-02T22:41:45.330Z,48.02
2018-07-02T22:42:45.329Z,49.15
2018-07-02T22:43:45.436Z,50.05
2018-07-02T22:44:45.293Z,50.66
2018-07-02T22:45:45.285Z,50.86
2018-07-02T22:46:45.274Z,51.18
2018-07-02T22:47:45.266Z,51.49
2018-07-02T22:48:45.324Z,51.29
2018-07-02T22:49:45.285Z,51.29
2018-07-02T22:50:45.232Z,51.18
2018-07-02T22:51:45.219Z,50.89
2018-07-02T22:52:45.213Z,50.98
2018-07-02T22:53:45.273Z,50.98
2018-07-02T22:54:45.188Z,51.16
2018-07-02T22:55:45.174Z,51.68
2018-07-02T22:56:45.166Z,51.26
2018-07-02T22:57:45.155Z,51.09
2018-07-02T22:58:45.215Z,50.76
2018-07-02T22:59:45.134Z,51.49
2018-07-02T23:00:45.127Z,52.09
2018-07-02T23:01:45.130Z,51.99
2018-07-02T23:02:45.104Z,52.82
2018-07-02T23:03:45.167Z,53.55
2018-07-02T23:04:45.077Z,54.05
2018-07-02T23:05:45.074Z,54.05
2018-07-02T23:06:45.042Z,54.15
2018-07-02T23:07:45.049Z,53.95
2018-07-02T23:08:45.143Z,54.48
2018-07-02T23:09:45.022Z,53.78
2018-07-02T23:10:45.011Z,54.08
2018-07-02T23:11:45.008Z,54.68
2018-07-02T23:12:44.988Z,55.51
2018-07-02T23:13:45.219Z,55.91
2018-07-02T23:14:44.965Z,55.51
2018-07-02T23:15:44.957Z,55.11
2018-07-02T23:16:44.945Z,55.01
2018-07-02T23:17:44.943Z,55.82
2018-07-02T23:18:45.249Z,56.02
2018-07-02T23:19:44.915Z,56.42
2018-07-02T23:20:44.906Z,56.55
2018-07-02T23:21:44.889Z,56.22
2018-07-02T23:22:44.885Z,55.62
2018-07-02T23:23:44.936Z,55.62
2018-07-02T23:24:44.858Z,55.31
2018-07-02T23:25:44.844Z,54.91
2018-07-02T23:26:44.832Z,55.71
2018-07-02T23:27:44.822Z,55.62
2018-07-02T23:28:46.054Z,55.51
2018-07-02T23:29:44.809Z,55.64
2018-07-02T23:30:44.794Z,56.65
2018-07-02T23:31:44.779Z,56.12
2018-07-02T23:32:44.764Z,55.71
2018-07-02T23:33:45.396Z,55.44
2018-07-02T23:34:44.754Z,55.11
2018-07-02T23:35:44.739Z,55.41
2018-07-02T23:36:44.740Z,55.74
2018-07-02T23:37:44.715Z,55.62
2018-07-02T23:38:45.449Z,55.64
2018-07-02T23:39:44.695Z,56.02
2018-07-02T23:40:44.682Z,55.64
2018-07-02T23:41:44.668Z,56.04
2018-07-02T23:42:44.662Z,56.24
2018-07-02T23:43:45.491Z,55.94
2018-07-02T23:44:44.635Z,56.95
2018-07-02T23:45:44.623Z,55.97
2018-07-02T23:46:44.613Z,57.38
2018-07-02T23:47:44.604Z,56.07
2018-07-02T23:48:45.540Z,55.77
2018-07-02T23:49:44.581Z,57.28
2018-07-02T23:50:44.567Z,57.08
2018-07-02T23:51:44.562Z,56.37
2018-07-02T23:52:44.549Z,56.57
2018-07-02T23:53:45.537Z,57.18
2018-07-02T23:54:44.516Z,57.38
2018-07-02T23:55:44.512Z,57.18
2018-07-02T23:56:44.504Z,56.27
2018-07-02T23:57:44.584Z,55.77
2018-07-02T23:58:44.479Z,56.37
2018-07-02T23:59:44.535Z,56.48
